< < Back
Terminal Aerodrome Forecast


Current Version              Previous Versions:   1  2  3  4  5  6  7  8  9  

Terminal Aerodrome Forecast

244
FTUS44 KMRX 270206 AAA
TAFTYS
TAF AMD
KTYS 270206Z 2702/2724 28008KT P6SM BKN030
      TEMPO 2702/2704 2SM -SN BR OVC020
     FM270600 26004KT 4SM BR OVC015
     FM271500 35004KT P6SM BKN020
     FM272100 32005KT P6SM OVC050=

Latest METAR

178
SAUS80 KWBC 271400 RRB
MTRTYS
METAR KTYS 271353Z 24005KT 6SM -SN BR BKN010 OVC014 M01/M01 A2994 RMK
AO2 SNE1258B01E32B53 CIG 007V012 SLP144 P0000 T10061011


USA.gov is the U.S. government's official web portal to all federal, state and local government web resources and services.